sensor_id;sensor_type;location;lat;lon;timestamp;temperature;humidity
17639;DHT22;8938;53.546;9.954;2023-06-01T00:01:38;15.60;99.90
17639;DHT22;8938;53.546;9.954;2023-06-01T00:04:04;15.70;99.90
17639;DHT22;8938;53.546;9.954;2023-06-01T00:06:29;15.70;99.90
17639;DHT22;8938;53.546;9.954;2023-06-01T00:08:56;15.80;99.90
17639;DHT22;8938;53.546;9.954;2023-06-01T00:11:22;15.60;99.90
17639;DHT22;8938;53.546;9.954;2023-06-01T00:13:48;15.70;99.90
17639;DHT22;8938;53.546;9.954;2023-06-01T00:16:15;15.70;99.90
17639;DHT22;8938;53.546;9.954;2023-06-01T00:18:40;15.80;99.90
17639;DHT22;8938;53.546;9.954;2023-06-01T00:21:06;15.90;99.90
17639;DHT22;8938;53.546;9.954;2023-06-01T00:23:32;15.90;99.90
17639;DHT22;8938;53.546;9.954;2023-06-01T00:25:58;15.80;99.90
17639;DHT22;8938;53.546;9.954;2023-06-01T00:28:23;15.80;99.90
17639;DHT22;8938;53.546;9.954;2023-06-01T00:30:49;15.70;99.90
17639;DHT22;8938;53.546;9.954;2023-06-01T00:33:14;15.70;99.90
17639;DHT22;8938;53.546;9.954;2023-06-01T00:35:40;15.70;99.90
17639;DHT22;8938;53.546;9.954;2023-06-01T00:38:06;15.70;99.90
17639;DHT22;8938;53.546;9.954;2023-06-01T00:40:33;15.70;99.90
17639;DHT22;8938;53.546;9.954;2023-06-01T00:42:58;15.60;99.90
17639;DHT22;8938;53.546;9.954;2023-06-01T00:45:24;15.60;99.90
17639;DHT22;8938;53.546;9.954;2023-06-01T00:47:49;15.50;99.90
17639;DHT22;8938;53.546;9.954;2023-06-01T00:50:15;15.50;99.90
17639;DHT22;8938;53.546;9.954;2023-06-01T00:52:42;15.50;99.90
17639;DHT22;8938;53.546;9.954;2023-06-01T00:55:09;15.50;99.90
17639;DHT22;8938;53.546;9.954;2023-06-01T00:57:37;15.50;99.90
17639;DHT22;8938;53.546;9.954;2023-06-01T01:00:03;15.40;99.90
17639;DHT22;8938;53.546;9.954;2023-06-01T01:02:42;15.30;99.90
17639;DHT22;8938;53.546;9.954;2023-06-01T01:05:10;15.20;99.90
17639;DHT22;8938;53.546;9.954;2023-06-01T01:10:22;15.30;99.90
17639;DHT22;8938;53.546;9.954;2023-06-01T01:18:51;15.30;99.90
17639;DHT22;8938;53.546;9.954;2023-06-01T01:21:21;15.40;99.90
17639;DHT22;8938;53.546;9.954;2023-06-01T01:29:52;15.70;99.90
17639;DHT22;8938;53.546;9.954;2023-06-01T01:32:19;15.60;99.90
17639;DHT22;8938;53.546;9.954;2023-06-01T01:34:46;15.60;99.90
17639;DHT22;8938;53.546;9.954;2023-06-01T01:37:13;15.60;99.90
17639;DHT22;8938;53.546;9.954;2023-06-01T01:39:39;15.60;99.90
17639;DHT22;8938;53.546;9.954;2023-06-01T01:42:04;15.70;99.90
17639;DHT22;8938;53.546;9.954;2023-06-01T01:44:31;15.70;99.90
17639;DHT22;8938;53.546;9.954;2023-06-01T01:47:24;15.60;99.90
17639;DHT22;8938;53.546;9.954;2023-06-01T01:49:56;15.60;99.90
17639;DHT22;8938;53.546;9.954;2023-06-01T01:52:30;15.50;99.90
17639;DHT22;8938;53.546;9.954;2023-06-01T01:54:58;15.50;99.90
17639;DHT22;8938;53.546;9.954;2023-06-01T01:57:24;15.50;99.90
17639;DHT22;8938;53.546;9.954;2023-06-01T01:59:52;15.60;99.90
17639;DHT22;8938;53.546;9.954;2023-06-01T02:02:18;15.50;99.90
17639;DHT22;8938;53.546;9.954;2023-06-01T02:04:45;15.40;99.90
17639;DHT22;8938;53.546;9.954;2023-06-01T02:07:14;15.50;99.90
17639;DHT22;8938;53.546;9.954;2023-06-01T02:09:40;15.50;99.90
17639;DHT22;8938;53.546;9.954;2023-06-01T02:12:06;15.50;99.90
17639;DHT22;8938;53.546;9.954;2023-06-01T02:14:32;15.50;99.90
17639;DHT22;8938;53.546;9.954;2023-06-01T02:16:58;15.50;99.90
17639;DHT22;8938;53.546;9.954;2023-06-01T02:19:28;15.50;99.90
17639;DHT22;8938;53.546;9.954;2023-06-01T02:21:54;15.50;99.90
17639;DHT22;8938;53.546;9.954;2023-06-01T02:24:20;15.60;99.90
17639;DHT22;8938;53.546;9.954;2023-06-01T02:26:46;15.60;99.90
17639;DHT22;8938;53.546;9.954;2023-06-01T02:29:14;15.50;99.90
17639;DHT22;8938;53.546;9.954;2023-06-01T02:31:40;15.50;99.90
17639;DHT22;8938;53.546;9.954;2023-06-01T02:34:05;15.50;99.90
17639;DHT22;8938;53.546;9.954;2023-06-01T02:36:31;15.50;99.90
17639;DHT22;8938;53.546;9.954;2023-06-01T02:38:58;15.40;99.90
17639;DHT22;8938;53.546;9.954;2023-06-01T02:41:24;15.50;99.90
17639;DHT22;8938;53.546;9.954;2023-06-01T02:43:50;15.50;99.90
17639;DHT22;8938;53.546;9.954;2023-06-01T02:46:17;15.50;99.90
17639;DHT22;8938;53.546;9.954;2023-06-01T02:48:43;15.50;99.90
17639;DHT22;8938;53.546;9.954;2023-06-01T02:51:08;15.50;99.90
17639;DHT22;8938;53.546;9.954;2023-06-01T02:53:34;15.50;99.90
17639;DHT22;8938;53.546;9.954;2023-06-01T02:55:59;15.30;99.90
17639;DHT22;8938;53.546;9.954;2023-06-01T02:58:25;15.30;99.90
17639;DHT22;8938;53.546;9.954;2023-06-01T03:00:50;15.40;99.90
17639;DHT22;8938;53.546;9.954;2023-06-01T03:03:16;15.40;99.90
17639;DHT22;8938;53.546;9.954;2023-06-01T03:05:42;15.30;99.90
17639;DHT22;8938;53.546;9.954;2023-06-01T03:08:08;15.30;99.90
17639;DHT22;8938;53.546;9.954;2023-06-01T03:10:34;15.20;99.90
17639;DHT22;8938;53.546;9.954;2023-06-01T03:12:59;15.30;99.90
17639;DHT22;8938;53.546;9.954;2023-06-01T03:15:25;15.30;99.90
17639;DHT22;8938;53.546;9.954;2023-06-01T03:17:52;15.30;99.90
17639;DHT22;8938;53.546;9.954;2023-06-01T03:20:18;15.30;99.90
17639;DHT22;8938;53.546;9.954;2023-06-01T03:22:44;15.30;99.90
17639;DHT22;8938;53.546;9.954;2023-06-01T03:25:11;15.40;99.90
17639;DHT22;8938;53.546;9.954;2023-06-01T03:27:38;15.50;99.90
17639;DHT22;8938;53.546;9.954;2023-06-01T03:30:04;15.50;99.90
17639;DHT22;8938;53.546;9.954;2023-06-01T03:32:35;15.40;99.90
17639;DHT22;8938;53.546;9.954;2023-06-01T03:35:01;15.40;99.90
17639;DHT22;8938;53.546;9.954;2023-06-01T03:37:27;15.30;99.90
17639;DHT22;8938;53.546;9.954;2023-06-01T03:39:53;15.30;99.90
17639;DHT22;8938;53.546;9.954;2023-06-01T03:42:19;15.40;99.90
17639;DHT22;8938;53.546;9.954;2023-06-01T03:44:44;15.40;99.90
17639;DHT22;8938;53.546;9.954;2023-06-01T03:47:10;15.30;99.90
17639;DHT22;8938;53.546;9.954;2023-06-01T03:49:36;15.30;99.90
17639;DHT22;8938;53.546;9.954;2023-06-01T03:52:01;15.30;99.90
17639;DHT22;8938;53.546;9.954;2023-06-01T03:54:27;15.40;99.90
17639;DHT22;8938;53.546;9.954;2023-06-01T03:56:53;15.40;99.90
17639;DHT22;8938;53.546;9.954;2023-06-01T03:59:18;15.40;99.90
17639;DHT22;8938;53.546;9.954;2023-06-01T04:01:44;15.40;99.90
17639;DHT22;8938;53.546;9.954;2023-06-01T04:04:10;15.40;99.90
17639;DHT22;8938;53.546;9.954;2023-06-01T04:06:38;15.40;99.90
17639;DHT22;8938;53.546;9.954;2023-06-01T04:09:04;15.40;99.90
17639;DHT22;8938;53.546;9.954;2023-06-01T04:11:33;15.30;99.90
17639;DHT22;8938;53.546;9.954;2023-06-01T04:13:59;15.30;99.90
17639;DHT22;8938;53.546;9.954;2023-06-01T04:16:25;15.30;99.90
17639;DHT22;8938;53.546;9.954;2023-06-01T04:18:50;15.40;99.90
17639;DHT22;8938;53.546;9.954;2023-06-01T04:21:16;15.50;99.90
17639;DHT22;8938;53.546;9.954;2023-06-01T04:23:42;15.50;99.90
17639;DHT22;8938;53.546;9.954;2023-06-01T04:26:08;15.50;99.90
17639;DHT22;8938;53.546;9.954;2023-06-01T04:28:34;15.60;99.90
17639;DHT22;8938;53.546;9.954;2023-06-01T04:31:00;15.60;99.90
17639;DHT22;8938;53.546;9.954;2023-06-01T04:33:27;15.60;99.90
17639;DHT22;8938;53.546;9.954;2023-06-01T04:35:53;15.70;99.90
17639;DHT22;8938;53.546;9.954;2023-06-01T04:38:21;15.70;99.90
17639;DHT22;8938;53.546;9.954;2023-06-01T04:40:50;15.70;99.90
17639;DHT22;8938;53.546;9.954;2023-06-01T04:43:18;15.70;99.90
17639;DHT22;8938;53.546;9.954;2023-06-01T04:45:45;15.60;99.90
17639;DHT22;8938;53.546;9.954;2023-06-01T04:48:11;15.50;99.90
17639;DHT22;8938;53.546;9.954;2023-06-01T04:50:37;15.60;99.90
17639;DHT22;8938;53.546;9.954;2023-06-01T04:53:02;15.50;99.90
17639;DHT22;8938;53.546;9.954;2023-06-01T04:55:28;15.60;99.90
17639;DHT22;8938;53.546;9.954;2023-06-01T04:57:54;15.70;99.90
17639;DHT22;8938;53.546;9.954;2023-06-01T05:00:20;15.70;99.90
17639;DHT22;8938;53.546;9.954;2023-06-01T05:02:46;15.70;99.90
17639;DHT22;8938;53.546;9.954;2023-06-01T05:05:14;15.80;99.90
17639;DHT22;8938;53.546;9.954;2023-06-01T05:07:40;15.90;99.90
17639;DHT22;8938;53.546;9.954;2023-06-01T05:10:08;15.90;99.90
17639;DHT22;8938;53.546;9.954;2023-06-01T05:12:35;15.80;99.90
17639;DHT22;8938;53.546;9.954;2023-06-01T05:15:04;15.90;99.90
17639;DHT22;8938;53.546;9.954;2023-06-01T05:17:30;15.90;99.90
17639;DHT22;8938;53.546;9.954;2023-06-01T05:19:55;16.00;99.90
17639;DHT22;8938;53.546;9.954;2023-06-01T05:22:22;16.00;99.90
17639;DHT22;8938;53.546;9.954;2023-06-01T05:24:48;16.00;99.90
17639;DHT22;8938;53.546;9.954;2023-06-01T05:27:13;16.00;99.90
17639;DHT22;8938;53.546;9.954;2023-06-01T05:29:39;16.00;99.90
17639;DHT22;8938;53.546;9.954;2023-06-01T05:32:06;16.20;99.90
17639;DHT22;8938;53.546;9.954;2023-06-01T05:34:31;16.20;99.90
17639;DHT22;8938;53.546;9.954;2023-06-01T05:36:57;16.20;99.90
17639;DHT22;8938;53.546;9.954;2023-06-01T05:39:22;16.20;99.90
17639;DHT22;8938;53.546;9.954;2023-06-01T05:41:53;16.20;99.90
17639;DHT22;8938;53.546;9.954;2023-06-01T05:44:18;16.30;99.90
17639;DHT22;8938;53.546;9.954;2023-06-01T05:46:44;16.30;99.90
17639;DHT22;8938;53.546;9.954;2023-06-01T05:49:09;16.20;99.90
17639;DHT22;8938;53.546;9.954;2023-06-01T05:51:35;16.10;99.90
17639;DHT22;8938;53.546;9.954;2023-06-01T05:54:03;16.00;99.90
17639;DHT22;8938;53.546;9.954;2023-06-01T05:56:30;16.10;99.90
17639;DHT22;8938;53.546;9.954;2023-06-01T05:58:56;16.00;99.90
17639;DHT22;8938;53.546;9.954;2023-06-01T06:01:21;16.10;99.90
17639;DHT22;8938;53.546;9.954;2023-06-01T06:03:47;16.00;99.90
17639;DHT22;8938;53.546;9.954;2023-06-01T06:06:13;16.20;99.90
17639;DHT22;8938;53.546;9.954;2023-06-01T06:08:38;16.20;99.90
17639;DHT22;8938;53.546;9.954;2023-06-01T06:11:04;16.20;99.90
17639;DHT22;8938;53.546;9.954;2023-06-01T06:13:29;16.20;99.90
17639;DHT22;8938;53.546;9.954;2023-06-01T06:15:55;16.30;99.90
17639;DHT22;8938;53.546;9.954;2023-06-01T06:18:21;16.30;99.90
17639;DHT22;8938;53.546;9.954;2023-06-01T06:20:47;16.20;99.90
17639;DHT22;8938;53.546;9.954;2023-06-01T06:23:12;16.20;99.90
17639;DHT22;8938;53.546;9.954;2023-06-01T06:25:38;16.20;99.90
17639;DHT22;8938;53.546;9.954;2023-06-01T06:28:05;16.20;99.90
17639;DHT22;8938;53.546;9.954;2023-06-01T06:30:31;16.10;99.90
17639;DHT22;8938;53.546;9.954;2023-06-01T06:32:57;16.30;99.90
17639;DHT22;8938;53.546;9.954;2023-06-01T06:35:22;16.20;99.90
17639;DHT22;8938;53.546;9.954;2023-06-01T06:37:48;16.20;99.90
17639;DHT22;8938;53.546;9.954;2023-06-01T06:40:13;16.30;99.90
17639;DHT22;8938;53.546;9.954;2023-06-01T06:42:40;16.20;99.90
17639;DHT22;8938;53.546;9.954;2023-06-01T06:45:06;16.20;99.90
17639;DHT22;8938;53.546;9.954;2023-06-01T06:47:32;16.10;99.90
17639;DHT22;8938;53.546;9.954;2023-06-01T06:49:57;16.10;99.90
17639;DHT22;8938;53.546;9.954;2023-06-01T06:52:23;16.10;99.90
17639;DHT22;8938;53.546;9.954;2023-06-01T06:54:48;16.20;99.90
17639;DHT22;8938;53.546;9.954;2023-06-01T06:57:14;16.30;99.90
17639;DHT22;8938;53.546;9.954;2023-06-01T06:59:40;16.40;99.90
17639;DHT22;8938;53.546;9.954;2023-06-01T07:02:06;16.40;99.90
17639;DHT22;8938;53.546;9.954;2023-06-01T07:04:31;16.40;99.90
17639;DHT22;8938;53.546;9.954;2023-06-01T07:06:57;16.40;99.90
17639;DHT22;8938;53.546;9.954;2023-06-01T07:09:22;16.50;99.90
17639;DHT22;8938;53.546;9.954;2023-06-01T07:11:48;16.50;99.90
17639;DHT22;8938;53.546;9.954;2023-06-01T07:14:14;16.60;99.90
17639;DHT22;8938;53.546;9.954;2023-06-01T07:16:40;16.70;99.90
17639;DHT22;8938;53.546;9.954;2023-06-01T07:19:07;16.90;99.90
17639;DHT22;8938;53.546;9.954;2023-06-01T07:21:32;17.00;99.90
17639;DHT22;8938;53.546;9.954;2023-06-01T07:23:58;17.10;99.90
17639;DHT22;8938;53.546;9.954;2023-06-01T07:26:23;17.10;99.90
17639;DHT22;8938;53.546;9.954;2023-06-01T07:28:54;17.10;99.90
17639;DHT22;8938;53.546;9.954;2023-06-01T07:31:20;17.00;99.90
17639;DHT22;8938;53.546;9.954;2023-06-01T07:33:46;16.90;99.90
17639;DHT22;8938;53.546;9.954;2023-06-01T07:36:12;16.90;99.90
17639;DHT22;8938;53.546;9.954;2023-06-01T07:38:38;16.80;99.90
17639;DHT22;8938;53.546;9.954;2023-06-01T07:41:03;16.80;99.90
17639;DHT22;8938;53.546;9.954;2023-06-01T07:43:29;16.70;99.90
17639;DHT22;8938;53.546;9.954;2023-06-01T07:45:55;16.70;99.90
17639;DHT22;8938;53.546;9.954;2023-06-01T07:48:21;16.70;99.90
17639;DHT22;8938;53.546;9.954;2023-06-01T07:50:46;16.80;99.90
17639;DHT22;8938;53.546;9.954;2023-06-01T07:53:12;16.90;99.90
17639;DHT22;8938;53.546;9.954;2023-06-01T07:55:37;16.90;99.90
17639;DHT22;8938;53.546;9.954;2023-06-01T07:58:03;16.90;99.90
17639;DHT22;8938;53.546;9.954;2023-06-01T08:00:29;17.00;99.90
17639;DHT22;8938;53.546;9.954;2023-06-01T08:02:55;17.00;99.90
17639;DHT22;8938;53.546;9.954;2023-06-01T08:05:22;17.20;99.90
17639;DHT22;8938;53.546;9.954;2023-06-01T08:07:48;17.10;99.90
17639;DHT22;8938;53.546;9.954;2023-06-01T08:10:14;17.30;99.80
17639;DHT22;8938;53.546;9.954;2023-06-01T08:12:40;17.20;99.50
17639;DHT22;8938;53.546;9.954;2023-06-01T08:15:08;17.20;99.70
17639;DHT22;8938;53.546;9.954;2023-06-01T08:17:35;17.30;99.80
17639;DHT22;8938;53.546;9.954;2023-06-01T08:20:01;17.40;99.70
17639;DHT22;8938;53.546;9.954;2023-06-01T08:22:33;17.40;99.60
17639;DHT22;8938;53.546;9.954;2023-06-01T08:24:59;17.40;99.60
17639;DHT22;8938;53.546;9.954;2023-06-01T08:27:24;17.50;99.70
17639;DHT22;8938;53.546;9.954;2023-06-01T08:29:50;17.50;99.50
17639;DHT22;8938;53.546;9.954;2023-06-01T08:32:16;17.60;99.50
17639;DHT22;8938;53.546;9.954;2023-06-01T08:34:46;17.70;99.40
17639;DHT22;8938;53.546;9.954;2023-06-01T08:37:15;17.60;99.20
17639;DHT22;8938;53.546;9.954;2023-06-01T08:39:40;17.60;99.20
17639;DHT22;8938;53.546;9.954;2023-06-01T08:42:07;17.40;99.30
17639;DHT22;8938;53.546;9.954;2023-06-01T08:44:36;17.40;99.70
17639;DHT22;8938;53.546;9.954;2023-06-01T08:47:03;17.60;99.70
17639;DHT22;8938;53.546;9.954;2023-06-01T08:49:31;17.80;99.30
17639;DHT22;8938;53.546;9.954;2023-06-01T08:52:04;17.70;99.10
17639;DHT22;8938;53.546;9.954;2023-06-01T08:54:32;17.60;99.10
17639;DHT22;8938;53.546;9.954;2023-06-01T08:57:04;17.60;99.30
17639;DHT22;8938;53.546;9.954;2023-06-01T08:59:31;17.70;99.30
17639;DHT22;8938;53.546;9.954;2023-06-01T09:01:57;17.70;99.20
17639;DHT22;8938;53.546;9.954;2023-06-01T09:04:23;17.70;99.40
17639;DHT22;8938;53.546;9.954;2023-06-01T09:06:49;17.90;99.20
17639;DHT22;8938;53.546;9.954;2023-06-01T09:09:14;18.00;98.90
17639;DHT22;8938;53.546;9.954;2023-06-01T09:11:40;17.90;99.00
17639;DHT22;8938;53.546;9.954;2023-06-01T09:14:22;17.90;99.00
17639;DHT22;8938;53.546;9.954;2023-06-01T09:16:49;17.70;98.90
17639;DHT22;8938;53.546;9.954;2023-06-01T09:19:15;17.80;98.80
17639;DHT22;8938;53.546;9.954;2023-06-01T09:21:56;17.60;98.30
17639;DHT22;8938;53.546;9.954;2023-06-01T09:24:21;17.60;98.70
17639;DHT22;8938;53.546;9.954;2023-06-01T09:26:48;17.90;98.60
17639;DHT22;8938;53.546;9.954;2023-06-01T09:29:14;18.20;98.40
17639;DHT22;8938;53.546;9.954;2023-06-01T09:31:47;18.40;97.00
17639;DHT22;8938;53.546;9.954;2023-06-01T09:34:15;18.30;96.80
17639;DHT22;8938;53.546;9.954;2023-06-01T09:36:44;18.30;96.40
17639;DHT22;8938;53.546;9.954;2023-06-01T09:39:13;18.40;96.80
17639;DHT22;8938;53.546;9.954;2023-06-01T09:41:50;18.60;96.30
17639;DHT22;8938;53.546;9.954;2023-06-01T09:44:35;18.70;96.30
17639;DHT22;8938;53.546;9.954;2023-06-01T09:47:09;18.80;95.90
17639;DHT22;8938;53.546;9.954;2023-06-01T09:49:41;18.80;96.10
17639;DHT22;8938;53.546;9.954;2023-06-01T09:52:08;18.90;96.10
17639;DHT22;8938;53.546;9.954;2023-06-01T09:54:45;19.00;95.80
17639;DHT22;8938;53.546;9.954;2023-06-01T09:57:11;19.00;95.80
17639;DHT22;8938;53.546;9.954;2023-06-01T09:59:42;19.10;95.80
17639;DHT22;8938;53.546;9.954;2023-06-01T10:02:17;19.20;95.30
17639;DHT22;8938;53.546;9.954;2023-06-01T10:04:51;19.10;95.10
17639;DHT22;8938;53.546;9.954;2023-06-01T10:07:19;19.00;95.60
17639;DHT22;8938;53.546;9.954;2023-06-01T10:09:48;19.00;95.70
17639;DHT22;8938;53.546;9.954;2023-06-01T10:12:15;19.20;95.80
17639;DHT22;8938;53.546;9.954;2023-06-01T10:14:41;19.10;95.40
17639;DHT22;8938;53.546;9.954;2023-06-01T10:17:07;18.90;95.50
17639;DHT22;8938;53.546;9.954;2023-06-01T10:19:35;18.80;95.80
17639;DHT22;8938;53.546;9.954;2023-06-01T10:22:03;18.80;95.80
17639;DHT22;8938;53.546;9.954;2023-06-01T10:24:29;18.80;95.80
17639;DHT22;8938;53.546;9.954;2023-06-01T10:29:42;19.00;95.90
17639;DHT22;8938;53.546;9.954;2023-06-01T10:32:42;19.00;95.50
17639;DHT22;8938;53.546;9.954;2023-06-01T10:35:09;18.90;95.70
17639;DHT22;8938;53.546;9.954;2023-06-01T10:37:38;18.90;95.70
17639;DHT22;8938;53.546;9.954;2023-06-01T10:42:42;18.80;95.90
17639;DHT22;8938;53.546;9.954;2023-06-01T10:45:08;18.80;95.90
17639;DHT22;8938;53.546;9.954;2023-06-01T10:50:06;18.90;95.20
17639;DHT22;8938;53.546;9.954;2023-06-01T10:52:36;19.00;94.90
17639;DHT22;8938;53.546;9.954;2023-06-01T10:57:44;19.20;94.50
17639;DHT22;8938;53.546;9.954;2023-06-01T11:03:02;19.30;94.00
17639;DHT22;8938;53.546;9.954;2023-06-01T11:13:36;19.90;93.50
17639;DHT22;8938;53.546;9.954;2023-06-01T11:23:44;19.90;93.50
17639;DHT22;8938;53.546;9.954;2023-06-01T11:26:17;19.80;93.50
17639;DHT22;8938;53.546;9.954;2023-06-01T11:28:44;19.50;93.50
17639;DHT22;8938;53.546;9.954;2023-06-01T11:31:11;19.40;93.80
17639;DHT22;8938;53.546;9.954;2023-06-01T11:33:39;19.30;94.00
17639;DHT22;8938;53.546;9.954;2023-06-01T11:36:07;19.30;94.00
17639;DHT22;8938;53.546;9.954;2023-06-01T11:38:40;19.30;93.80
17639;DHT22;8938;53.546;9.954;2023-06-01T11:41:07;19.20;93.60
17639;DHT22;8938;53.546;9.954;2023-06-01T11:43:33;19.20;93.70
17639;DHT22;8938;53.546;9.954;2023-06-01T11:46:05;19.30;94.00
17639;DHT22;8938;53.546;9.954;2023-06-01T11:48:31;19.60;93.90
17639;DHT22;8938;53.546;9.954;2023-06-01T11:50:57;19.90;93.80
17639;DHT22;8938;53.546;9.954;2023-06-01T11:53:25;20.10;93.70
17639;DHT22;8938;53.546;9.954;2023-06-01T11:55:53;20.20;92.80
17639;DHT22;8938;53.546;9.954;2023-06-01T11:58:26;20.00;92.70
17639;DHT22;8938;53.546;9.954;2023-06-01T12:00:52;19.80;92.90
17639;DHT22;8938;53.546;9.954;2023-06-01T12:03:19;19.50;93.30
17639;DHT22;8938;53.546;9.954;2023-06-01T12:05:45;19.40;93.50
17639;DHT22;8938;53.546;9.954;2023-06-01T12:08:16;19.20;93.70
17639;DHT22;8938;53.546;9.954;2023-06-01T12:10:47;19.00;94.00
17639;DHT22;8938;53.546;9.954;2023-06-01T12:13:17;18.90;94.20
17639;DHT22;8938;53.546;9.954;2023-06-01T12:15:43;18.80;94.30
17639;DHT22;8938;53.546;9.954;2023-06-01T12:18:09;18.70;94.20
17639;DHT22;8938;53.546;9.954;2023-06-01T12:20:42;18.60;94.50
17639;DHT22;8938;53.546;9.954;2023-06-01T12:25:57;18.80;94.90
17639;DHT22;8938;53.546;9.954;2023-06-01T12:28:25;18.90;94.80
17639;DHT22;8938;53.546;9.954;2023-06-01T12:31:10;19.00;94.60
17639;DHT22;8938;53.546;9.954;2023-06-01T12:33:37;19.10;94.30
17639;DHT22;8938;53.546;9.954;2023-06-01T12:36:03;19.10;94.30
17639;DHT22;8938;53.546;9.954;2023-06-01T12:41:15;19.30;94.30
17639;DHT22;8938;53.546;9.954;2023-06-01T12:43:47;19.50;94.10
17639;DHT22;8938;53.546;9.954;2023-06-01T12:46:27;19.50;94.10
17639;DHT22;8938;53.546;9.954;2023-06-01T12:49:10;19.50;94.00
17639;DHT22;8938;53.546;9.954;2023-06-01T12:51:36;19.50;94.10
17639;DHT22;8938;53.546;9.954;2023-06-01T12:54:02;19.60;94.20
17639;DHT22;8938;53.546;9.954;2023-06-01T12:56:28;19.70;93.70
17639;DHT22;8938;53.546;9.954;2023-06-01T12:58:54;19.60;93.40
17639;DHT22;8938;53.546;9.954;2023-06-01T13:01:20;19.50;93.40
17639;DHT22;8938;53.546;9.954;2023-06-01T13:03:45;19.30;93.70
17639;DHT22;8938;53.546;9.954;2023-06-01T13:06:11;19.40;93.80
17639;DHT22;8938;53.546;9.954;2023-06-01T13:08:37;19.50;93.30
17639;DHT22;8938;53.546;9.954;2023-06-01T13:11:03;19.40;93.00
17639;DHT22;8938;53.546;9.954;2023-06-01T13:13:29;19.30;93.20
17639;DHT22;8938;53.546;9.954;2023-06-01T13:15:54;19.30;93.60
17639;DHT22;8938;53.546;9.954;2023-06-01T13:18:20;19.40;93.90
17639;DHT22;8938;53.546;9.954;2023-06-01T13:20:46;19.40;93.90
17639;DHT22;8938;53.546;9.954;2023-06-01T13:23:12;19.50;93.70
17639;DHT22;8938;53.546;9.954;2023-06-01T13:25:39;19.50;93.30
17639;DHT22;8938;53.546;9.954;2023-06-01T13:28:05;19.60;93.30
17639;DHT22;8938;53.546;9.954;2023-06-01T13:30:31;19.70;93.10
17639;DHT22;8938;53.546;9.954;2023-06-01T13:32:59;19.60;92.90
17639;DHT22;8938;53.546;9.954;2023-06-01T13:35:25;19.70;92.60
17639;DHT22;8938;53.546;9.954;2023-06-01T13:37:51;19.70;92.60
17639;DHT22;8938;53.546;9.954;2023-06-01T13:40:17;19.70;92.90
17639;DHT22;8938;53.546;9.954;2023-06-01T13:42:44;19.90;92.80
17639;DHT22;8938;53.546;9.954;2023-06-01T13:45:10;19.80;92.50
17639;DHT22;8938;53.546;9.954;2023-06-01T13:47:37;20.00;92.70
17639;DHT22;8938;53.546;9.954;2023-06-01T13:50:02;19.80;92.50
17639;DHT22;8938;53.546;9.954;2023-06-01T13:52:30;19.90;92.70
17639;DHT22;8938;53.546;9.954;2023-06-01T13:54:55;19.90;92.90
17639;DHT22;8938;53.546;9.954;2023-06-01T13:57:21;19.90;92.80
17639;DHT22;8938;53.546;9.954;2023-06-01T13:59:47;19.90;92.70
17639;DHT22;8938;53.546;9.954;2023-06-01T14:02:13;19.90;92.50
17639;DHT22;8938;53.546;9.954;2023-06-01T14:04:38;19.80;92.60
17639;DHT22;8938;53.546;9.954;2023-06-01T14:07:04;19.80;92.30
17639;DHT22;8938;53.546;9.954;2023-06-01T14:09:30;19.80;92.30
17639;DHT22;8938;53.546;9.954;2023-06-01T14:11:55;19.80;92.60
17639;DHT22;8938;53.546;9.954;2023-06-01T14:14:21;19.90;92.40
17639;DHT22;8938;53.546;9.954;2023-06-01T14:16:46;19.90;92.50
17639;DHT22;8938;53.546;9.954;2023-06-01T14:19:12;20.00;92.30
17639;DHT22;8938;53.546;9.954;2023-06-01T14:21:37;20.10;92.00
17639;DHT22;8938;53.546;9.954;2023-06-01T14:24:03;19.90;91.80
17639;DHT22;8938;53.546;9.954;2023-06-01T14:26:29;19.70;91.70
17639;DHT22;8938;53.546;9.954;2023-06-01T14:28:55;19.50;92.00
17639;DHT22;8938;53.546;9.954;2023-06-01T14:31:20;19.60;92.40
17639;DHT22;8938;53.546;9.954;2023-06-01T14:33:46;19.80;92.40
17639;DHT22;8938;53.546;9.954;2023-06-01T14:36:12;20.00;92.40
17639;DHT22;8938;53.546;9.954;2023-06-01T14:38:38;20.30;92.10
17639;DHT22;8938;53.546;9.954;2023-06-01T14:41:04;20.30;91.60
17639;DHT22;8938;53.546;9.954;2023-06-01T14:43:30;20.10;91.60
17639;DHT22;8938;53.546;9.954;2023-06-01T14:45:56;19.90;91.70
17639;DHT22;8938;53.546;9.954;2023-06-01T14:48:22;19.70;92.00
17639;DHT22;8938;53.546;9.954;2023-06-01T14:50:48;19.70;91.90
17639;DHT22;8938;53.546;9.954;2023-06-01T14:53:13;19.70;91.90
17639;DHT22;8938;53.546;9.954;2023-06-01T14:55:40;19.60;91.90
17639;DHT22;8938;53.546;9.954;2023-06-01T14:58:09;19.50;91.90
17639;DHT22;8938;53.546;9.954;2023-06-01T15:00:35;19.40;91.90
17639;DHT22;8938;53.546;9.954;2023-06-01T15:03:00;19.40;92.10
17639;DHT22;8938;53.546;9.954;2023-06-01T15:05:26;19.30;92.10
17639;DHT22;8938;53.546;9.954;2023-06-01T15:07:52;19.30;92.20
17639;DHT22;8938;53.546;9.954;2023-06-01T15:10:17;19.30;92.30
17639;DHT22;8938;53.546;9.954;2023-06-01T15:12:43;19.40;92.40
17639;DHT22;8938;53.546;9.954;2023-06-01T15:15:09;19.50;92.10
17639;DHT22;8938;53.546;9.954;2023-06-01T15:17:34;19.60;92.00
17639;DHT22;8938;53.546;9.954;2023-06-01T15:20:00;19.60;91.90
17639;DHT22;8938;53.546;9.954;2023-06-01T15:22:26;19.70;91.90
17639;DHT22;8938;53.546;9.954;2023-06-01T15:24:52;19.50;91.90
17639;DHT22;8938;53.546;9.954;2023-06-01T15:27:17;19.30;92.10
17639;DHT22;8938;53.546;9.954;2023-06-01T15:29:45;19.30;92.40
17639;DHT22;8938;53.546;9.954;2023-06-01T15:32:10;19.30;92.50
17639;DHT22;8938;53.546;9.954;2023-06-01T15:34:36;19.20;92.00
17639;DHT22;8938;53.546;9.954;2023-06-01T15:37:07;19.00;92.10
17639;DHT22;8938;53.546;9.954;2023-06-01T15:39:34;19.00;92.40
17639;DHT22;8938;53.546;9.954;2023-06-01T15:41:59;19.10;92.30
17639;DHT22;8938;53.546;9.954;2023-06-01T15:44:25;19.00;92.30
17639;DHT22;8938;53.546;9.954;2023-06-01T15:46:52;18.80;92.40
17639;DHT22;8938;53.546;9.954;2023-06-01T15:49:18;18.70;92.30
17639;DHT22;8938;53.546;9.954;2023-06-01T15:51:43;18.60;92.40
17639;DHT22;8938;53.546;9.954;2023-06-01T15:54:09;18.40;92.40
17639;DHT22;8938;53.546;9.954;2023-06-01T15:56:34;18.30;92.50
17639;DHT22;8938;53.546;9.954;2023-06-01T15:59:00;18.20;92.40
17639;DHT22;8938;53.546;9.954;2023-06-01T16:01:25;18.20;92.60
17639;DHT22;8938;53.546;9.954;2023-06-01T16:03:51;18.10;92.70
17639;DHT22;8938;53.546;9.954;2023-06-01T16:06:16;18.20;92.90
17639;DHT22;8938;53.546;9.954;2023-06-01T16:08:42;18.20;92.70
17639;DHT22;8938;53.546;9.954;2023-06-01T16:11:08;18.30;92.90
17639;DHT22;8938;53.546;9.954;2023-06-01T16:13:33;18.20;93.00
17639;DHT22;8938;53.546;9.954;2023-06-01T16:15:59;18.20;92.90
17639;DHT22;8938;53.546;9.954;2023-06-01T16:18:24;18.10;93.00
17639;DHT22;8938;53.546;9.954;2023-06-01T16:20:50;18.10;93.20
17639;DHT22;8938;53.546;9.954;2023-06-01T16:23:16;18.10;93.20
17639;DHT22;8938;53.546;9.954;2023-06-01T16:25:41;18.10;93.20
17639;DHT22;8938;53.546;9.954;2023-06-01T16:28:07;18.10;93.20
17639;DHT22;8938;53.546;9.954;2023-06-01T16:30:32;18.10;93.10
17639;DHT22;8938;53.546;9.954;2023-06-01T16:32:58;18.20;93.00